Decoded Metar for KJQF (CONCORD REG ARPT in NC, USA) (IATA:JQF) | Meteo·Mobile Aviation Weather
aviador You're here:

KJQF Decoded Metar

CONCORD REG ARPT in NC, USA
Report Time2018-12-11 02:50:00
UTC Time2018-12-11 02:57:12
Flight Rules vfr VFR
WindCalm
Visibility9999 m
Phenomena:N/A
Clouds:Scattered 120 Hf
Expected CloudBase > 1,200 ft AGL from Temp-Dew spread
CeilingNone
Temp01°C (ISA -13)
Dew Point-2°C (81% RH)
AAT-1.2°C
QNH1022 hPa
Density Alt-1,079 ft
Elevation689 ft
Report Wrong Elevation
Raw Report
KJQF 110250Z 00000KT 10SM SCT120 01/M02 A3018=

Extra information for KJQF:More info

Metar Taf Metar & Taf Last 4 Metars F.Rules Stats Wind Profile Meteogram Temp Stats Airport Information Weather charts Add Link Nearby VenuesMetar ALERT Operation Metar Decoded Social comments

AIRNAV info for KJQF